This is the latest recevied weather packets stored in our database for station/object SR4DIG-13. If no packets are shown the sender has not sent any weather packets the latest 10 day(s).
| Time | Temp. | Humidity | Pressure | Rain* | Wind** | Luminosity | Snow |
|---|---|---|---|---|---|---|---|
| 1787832910 | 27.22° C | 36% | 1024.2 hPa | 0 mm | - | - | - |
| 1787832554 | 27.22° C | 35% | 1024.3 hPa | 0 mm | - | - | - |
| 1787831962 | 26.67° C | 38% | 1024.3 hPa | 0 mm | - | - | - |
| 1787831661 | 26.67° C | 38% | 1024.3 hPa | 0 mm | - | - | - |
| 1787831360 | 27.22° C | 38% | 1024.3 hPa | 0 mm | - | - | - |
| 1787831059 | 26.67° C | 39% | 1024.2 hPa | 0 mm | - | - | - |
| 1787830758 | 27.22° C | 37% | 1024.2 hPa | 0 mm | - | - | - |
| 1787830458 | 26.67° C | 39% | 1024.3 hPa | 0 mm | - | - | - |
| 1787830157 | 26.11° C | 40% | 1024.2 hPa | 0 mm | - | - | - |
| 1787829856 | 26.11° C | 39% | 1024.3 hPa | 0 mm | - | - | - |
| 1787829555 | 27.78° C | 38% | 1024.4 hPa | 0 mm | - | - | - |
| 1787829254 | 27.22° C | 39% | 1024.4 hPa | 0 mm | - | - | - |
| 1787828953 | 26.67° C | 39% | 1024.3 hPa | 0 mm | - | - | - |
| 1787828652 | 28.33° C | 37% | 1024.3 hPa | 0 mm | - | - | - |
| 1787828351 | 28.33° C | 38% | 1024.1 hPa | 0 mm | - | - | - |
| 1787828050 | 27.78° C | 40% | 1024.2 hPa | 0 mm | - | - | - |
| 1787827749 | 26.11° C | 41% | 1024.1 hPa | 0 mm | - | - | - |
| 1787827448 | 26.67° C | 40% | 1024.3 hPa | 0 mm | - | - | - |
| 1787827148 | 27.22° C | 39% | 1024.2 hPa | 0 mm | - | - | - |
| 1787826847 | 26.11° C | 41% | 1024.3 hPa | 0 mm | - | - | - |
| 1787826546 | 23.89° C | 44% | 1024.3 hPa | 0 mm | - | - | - |
| 1787825989 | 25.56° C | 42% | 1024.4 hPa | 0 mm | - | - | - |
| 1787825688 | 26.11° C | 41% | 1024.3 hPa | 0 mm | - | - | - |
| 1787825387 | 26.67° C | 41% | 1024.4 hPa | 0 mm | - | - | - |
| 1787825086 | 26.11° C | 43% | 1024.4 hPa | 0 mm | - | - | - |
* Rain latest hour (hover to see other rain measurements)
** Current wind speed in m/s (hover to see current wind gust speed)